sensor_id;sensor_type;location;lat;lon;timestamp;P1;durP1;ratioP1;P2;durP2;ratioP2
16512;SDS011;8369;48.030;11.598;2023-03-14T00:01:23;0.93;;;0.77;;
16512;SDS011;8369;48.030;11.598;2023-03-14T00:03:50;1.20;;;1.10;;
16512;SDS011;8369;48.030;11.598;2023-03-14T00:06:18;1.87;;;1.00;;
16512;SDS011;8369;48.030;11.598;2023-03-14T00:08:46;1.10;;;1.00;;
16512;SDS011;8369;48.030;11.598;2023-03-14T00:18:39;0.93;;;0.93;;
16512;SDS011;8369;48.030;11.598;2023-03-14T00:21:07;0.70;;;0.70;;
16512;SDS011;8369;48.030;11.598;2023-03-14T00:23:36;1.03;;;0.80;;
16512;SDS011;8369;48.030;11.598;2023-03-14T00:26:09;1.50;;;0.87;;
16512;SDS011;8369;48.030;11.598;2023-03-14T00:28:41;0.80;;;0.80;;
16512;SDS011;8369;48.030;11.598;2023-03-14T00:31:09;0.60;;;0.60;;
16512;SDS011;8369;48.030;11.598;2023-03-14T00:33:37;1.03;;;0.70;;
16512;SDS011;8369;48.030;11.598;2023-03-14T00:36:05;0.97;;;0.90;;
16512;SDS011;8369;48.030;11.598;2023-03-14T00:38:37;0.90;;;0.80;;
16512;SDS011;8369;48.030;11.598;2023-03-14T00:41:06;0.60;;;0.60;;
16512;SDS011;8369;48.030;11.598;2023-03-14T00:43:35;0.73;;;0.73;;
16512;SDS011;8369;48.030;11.598;2023-03-14T00:46:03;0.60;;;0.60;;
16512;SDS011;8369;48.030;11.598;2023-03-14T00:48:30;0.60;;;0.60;;
16512;SDS011;8369;48.030;11.598;2023-03-14T00:50:58;0.90;;;0.90;;
16512;SDS011;8369;48.030;11.598;2023-03-14T00:53:26;0.80;;;0.70;;
16512;SDS011;8369;48.030;11.598;2023-03-14T00:55:52;0.57;;;0.57;;
16512;SDS011;8369;48.030;11.598;2023-03-14T00:58:20;1.07;;;0.80;;
16512;SDS011;8369;48.030;11.598;2023-03-14T01:00:58;0.77;;;0.77;;
16512;SDS011;8369;48.030;11.598;2023-03-14T01:03:34;0.87;;;0.87;;
16512;SDS011;8369;48.030;11.598;2023-03-14T01:06:06;0.93;;;0.90;;
16512;SDS011;8369;48.030;11.598;2023-03-14T01:08:38;0.80;;;0.80;;
16512;SDS011;8369;48.030;11.598;2023-03-14T01:11:06;1.20;;;1.10;;
16512;SDS011;8369;48.030;11.598;2023-03-14T01:13:38;1.30;;;0.90;;
16512;SDS011;8369;48.030;11.598;2023-03-14T01:16:06;1.03;;;0.80;;
16512;SDS011;8369;48.030;11.598;2023-03-14T01:18:35;0.97;;;0.90;;
16512;SDS011;8369;48.030;11.598;2023-03-14T01:21:09;0.83;;;0.83;;
16512;SDS011;8369;48.030;11.598;2023-03-14T01:23:41;2.60;;;1.10;;
16512;SDS011;8369;48.030;11.598;2023-03-14T01:26:16;0.73;;;0.70;;
16512;SDS011;8369;48.030;11.598;2023-03-14T01:28:45;0.70;;;0.70;;
16512;SDS011;8369;48.030;11.598;2023-03-14T01:31:13;0.60;;;0.60;;
16512;SDS011;8369;48.030;11.598;2023-03-14T01:33:40;1.30;;;0.77;;
16512;SDS011;8369;48.030;11.598;2023-03-14T01:36:07;0.87;;;0.80;;
16512;SDS011;8369;48.030;11.598;2023-03-14T01:38:36;2.03;;;0.90;;
16512;SDS011;8369;48.030;11.598;2023-03-14T01:41:05;0.70;;;0.70;;
16512;SDS011;8369;48.030;11.598;2023-03-14T01:43:33;1.67;;;0.60;;
16512;SDS011;8369;48.030;11.598;2023-03-14T01:51:21;1.67;;;0.80;;
16512;SDS011;8369;48.030;11.598;2023-03-14T01:53:55;0.63;;;0.63;;
16512;SDS011;8369;48.030;11.598;2023-03-14T01:56:33;0.70;;;0.70;;
16512;SDS011;8369;48.030;11.598;2023-03-14T01:59:03;3.50;;;0.70;;
16512;SDS011;8369;48.030;11.598;2023-03-14T02:01:32;0.60;;;0.60;;
16512;SDS011;8369;48.030;11.598;2023-03-14T02:03:59;1.83;;;0.77;;
16512;SDS011;8369;48.030;11.598;2023-03-14T02:06:34;0.90;;;0.90;;
16512;SDS011;8369;48.030;11.598;2023-03-14T02:09:17;1.67;;;0.90;;
16512;SDS011;8369;48.030;11.598;2023-03-14T02:11:46;2.20;;;0.80;;
16512;SDS011;8369;48.030;11.598;2023-03-14T02:14:14;0.90;;;0.83;;
16512;SDS011;8369;48.030;11.598;2023-03-14T02:16:49;0.97;;;0.93;;
16512;SDS011;8369;48.030;11.598;2023-03-14T02:19:17;0.90;;;0.73;;
16512;SDS011;8369;48.030;11.598;2023-03-14T02:22:02;1.30;;;0.80;;
16512;SDS011;8369;48.030;11.598;2023-03-14T02:27:24;0.80;;;0.80;;
16512;SDS011;8369;48.030;11.598;2023-03-14T02:29:58;2.83;;;0.60;;
16512;SDS011;8369;48.030;11.598;2023-03-14T02:32:25;2.97;;;0.77;;
16512;SDS011;8369;48.030;11.598;2023-03-14T02:34:56;0.80;;;0.80;;
16512;SDS011;8369;48.030;11.598;2023-03-14T02:38:09;1.13;;;0.73;;
16512;SDS011;8369;48.030;11.598;2023-03-14T02:40:18;0.37;;;0.37;;
16512;SDS011;8369;48.030;11.598;2023-03-14T02:42:46;1.83;;;0.73;;
16512;SDS011;8369;48.030;11.598;2023-03-14T02:47:45;1.80;;;1.00;;
16512;SDS011;8369;48.030;11.598;2023-03-14T02:50:22;0.60;;;0.60;;
16512;SDS011;8369;48.030;11.598;2023-03-14T02:52:54;0.90;;;0.70;;
16512;SDS011;8369;48.030;11.598;2023-03-14T02:55:21;0.57;;;0.50;;
16512;SDS011;8369;48.030;11.598;2023-03-14T02:57:48;0.53;;;0.53;;
16512;SDS011;8369;48.030;11.598;2023-03-14T03:00:16;0.87;;;0.60;;
16512;SDS011;8369;48.030;11.598;2023-03-14T03:02:46;0.40;;;0.40;;
16512;SDS011;8369;48.030;11.598;2023-03-14T03:05:15;0.70;;;0.70;;
16512;SDS011;8369;48.030;11.598;2023-03-14T03:07:42;1.23;;;0.80;;
16512;SDS011;8369;48.030;11.598;2023-03-14T03:10:11;0.57;;;0.57;;
16512;SDS011;8369;48.030;11.598;2023-03-14T03:12:38;0.40;;;0.40;;
16512;SDS011;8369;48.030;11.598;2023-03-14T03:15:08;1.50;;;0.90;;
16512;SDS011;8369;48.030;11.598;2023-03-14T03:17:35;0.70;;;0.70;;
16512;SDS011;8369;48.030;11.598;2023-03-14T03:20:01;1.47;;;0.70;;
16512;SDS011;8369;48.030;11.598;2023-03-14T03:22:35;0.40;;;0.40;;
16512;SDS011;8369;48.030;11.598;2023-03-14T03:25:02;0.40;;;0.40;;
16512;SDS011;8369;48.030;11.598;2023-03-14T03:27:31;0.93;;;0.40;;
16512;SDS011;8369;48.030;11.598;2023-03-14T03:29:58;0.53;;;0.53;;
16512;SDS011;8369;48.030;11.598;2023-03-14T03:32:24;0.53;;;0.40;;
16512;SDS011;8369;48.030;11.598;2023-03-14T03:34:51;0.97;;;0.73;;
16512;SDS011;8369;48.030;11.598;2023-03-14T03:37:18;0.53;;;0.53;;
16512;SDS011;8369;48.030;11.598;2023-03-14T03:39:44;0.40;;;0.40;;
16512;SDS011;8369;48.030;11.598;2023-03-14T03:42:10;0.40;;;0.40;;
16512;SDS011;8369;48.030;11.598;2023-03-14T03:44:36;0.40;;;0.40;;
16512;SDS011;8369;48.030;11.598;2023-03-14T03:47:02;0.60;;;0.40;;
16512;SDS011;8369;48.030;11.598;2023-03-14T03:49:28;0.40;;;0.40;;
16512;SDS011;8369;48.030;11.598;2023-03-14T03:51:55;1.37;;;0.57;;
16512;SDS011;8369;48.030;11.598;2023-03-14T03:54:21;0.40;;;0.40;;
16512;SDS011;8369;48.030;11.598;2023-03-14T03:56:46;2.63;;;0.50;;
16512;SDS011;8369;48.030;11.598;2023-03-14T03:59:12;0.33;;;0.33;;
16512;SDS011;8369;48.030;11.598;2023-03-14T04:01:38;0.40;;;0.40;;
16512;SDS011;8369;48.030;11.598;2023-03-14T04:04:05;0.70;;;0.50;;
16512;SDS011;8369;48.030;11.598;2023-03-14T04:06:32;0.30;;;0.30;;
16512;SDS011;8369;48.030;11.598;2023-03-14T04:08:58;0.30;;;0.30;;
16512;SDS011;8369;48.030;11.598;2023-03-14T04:11:24;1.03;;;0.60;;
16512;SDS011;8369;48.030;11.598;2023-03-14T04:13:50;0.37;;;0.37;;
16512;SDS011;8369;48.030;11.598;2023-03-14T04:16:17;0.50;;;0.50;;
16512;SDS011;8369;48.030;11.598;2023-03-14T04:18:48;0.47;;;0.47;;
16512;SDS011;8369;48.030;11.598;2023-03-14T04:21:14;0.40;;;0.23;;
16512;SDS011;8369;48.030;11.598;2023-03-14T04:23:40;0.30;;;0.30;;
16512;SDS011;8369;48.030;11.598;2023-03-14T04:26:06;0.50;;;0.50;;
16512;SDS011;8369;48.030;11.598;2023-03-14T04:28:33;0.60;;;0.37;;
16512;SDS011;8369;48.030;11.598;2023-03-14T04:33:40;0.30;;;0.30;;
16512;SDS011;8369;48.030;11.598;2023-03-14T04:36:10;0.30;;;0.30;;
16512;SDS011;8369;48.030;11.598;2023-03-14T04:38:36;0.80;;;0.80;;
16512;SDS011;8369;48.030;11.598;2023-03-14T04:41:02;1.50;;;0.33;;
16512;SDS011;8369;48.030;11.598;2023-03-14T04:43:28;0.50;;;0.50;;
16512;SDS011;8369;48.030;11.598;2023-03-14T04:45:55;0.30;;;0.30;;
16512;SDS011;8369;48.030;11.598;2023-03-14T04:48:23;0.50;;;0.40;;
16512;SDS011;8369;48.030;11.598;2023-03-14T04:50:49;2.30;;;0.37;;
16512;SDS011;8369;48.030;11.598;2023-03-14T04:53:16;0.50;;;0.50;;
16512;SDS011;8369;48.030;11.598;2023-03-14T04:55:46;0.30;;;0.30;;
16512;SDS011;8369;48.030;11.598;2023-03-14T04:58:17;0.60;;;0.60;;
16512;SDS011;8369;48.030;11.598;2023-03-14T05:00:43;1.20;;;1.17;;
16512;SDS011;8369;48.030;11.598;2023-03-14T05:03:10;0.47;;;0.43;;
16512;SDS011;8369;48.030;11.598;2023-03-14T05:05:36;0.30;;;0.30;;
16512;SDS011;8369;48.030;11.598;2023-03-14T05:08:03;0.30;;;0.30;;
16512;SDS011;8369;48.030;11.598;2023-03-14T05:10:29;0.37;;;0.37;;
16512;SDS011;8369;48.030;11.598;2023-03-14T05:12:55;0.77;;;0.77;;
16512;SDS011;8369;48.030;11.598;2023-03-14T05:15:21;0.53;;;0.50;;
16512;SDS011;8369;48.030;11.598;2023-03-14T05:17:48;0.57;;;0.57;;
16512;SDS011;8369;48.030;11.598;2023-03-14T05:20:14;0.70;;;0.70;;
16512;SDS011;8369;48.030;11.598;2023-03-14T05:22:41;0.70;;;0.70;;
16512;SDS011;8369;48.030;11.598;2023-03-14T05:25:07;0.50;;;0.50;;
16512;SDS011;8369;48.030;11.598;2023-03-14T05:27:34;0.60;;;0.60;;
16512;SDS011;8369;48.030;11.598;2023-03-14T05:30:01;0.43;;;0.43;;
16512;SDS011;8369;48.030;11.598;2023-03-14T05:32:28;0.37;;;0.30;;
16512;SDS011;8369;48.030;11.598;2023-03-14T05:34:54;0.70;;;0.50;;
16512;SDS011;8369;48.030;11.598;2023-03-14T05:37:24;0.53;;;0.53;;
16512;SDS011;8369;48.030;11.598;2023-03-14T05:39:51;1.10;;;1.00;;
16512;SDS011;8369;48.030;11.598;2023-03-14T05:42:17;0.70;;;0.70;;
16512;SDS011;8369;48.030;11.598;2023-03-14T05:44:43;0.73;;;0.60;;
16512;SDS011;8369;48.030;11.598;2023-03-14T05:47:14;0.80;;;0.80;;
16512;SDS011;8369;48.030;11.598;2023-03-14T05:49:40;1.40;;;1.30;;
16512;SDS011;8369;48.030;11.598;2023-03-14T05:52:07;0.70;;;0.70;;
16512;SDS011;8369;48.030;11.598;2023-03-14T05:54:33;0.60;;;0.60;;
16512;SDS011;8369;48.030;11.598;2023-03-14T05:57:00;0.80;;;0.80;;
16512;SDS011;8369;48.030;11.598;2023-03-14T05:59:26;0.90;;;0.90;;
16512;SDS011;8369;48.030;11.598;2023-03-14T06:01:52;3.03;;;2.23;;
16512;SDS011;8369;48.030;11.598;2023-03-14T06:04:18;5.47;;;3.63;;
16512;SDS011;8369;48.030;11.598;2023-03-14T06:06:46;4.23;;;3.13;;
16512;SDS011;8369;48.030;11.598;2023-03-14T06:09:12;2.50;;;2.00;;
16512;SDS011;8369;48.030;11.598;2023-03-14T06:11:38;3.33;;;3.00;;
16512;SDS011;8369;48.030;11.598;2023-03-14T06:14:06;2.47;;;2.03;;
16512;SDS011;8369;48.030;11.598;2023-03-14T06:16:32;3.00;;;2.70;;
16512;SDS011;8369;48.030;11.598;2023-03-14T06:19:00;2.67;;;1.90;;
16512;SDS011;8369;48.030;11.598;2023-03-14T06:21:26;1.70;;;1.60;;
16512;SDS011;8369;48.030;11.598;2023-03-14T06:23:55;1.70;;;1.60;;
16512;SDS011;8369;48.030;11.598;2023-03-14T06:26:21;0.93;;;0.93;;
16512;SDS011;8369;48.030;11.598;2023-03-14T06:28:50;1.10;;;1.00;;
16512;SDS011;8369;48.030;11.598;2023-03-14T06:31:18;0.70;;;0.70;;
16512;SDS011;8369;48.030;11.598;2023-03-14T06:33:44;0.70;;;0.70;;
16512;SDS011;8369;48.030;11.598;2023-03-14T06:36:11;0.70;;;0.70;;
16512;SDS011;8369;48.030;11.598;2023-03-14T06:38:37;0.60;;;0.60;;
16512;SDS011;8369;48.030;11.598;2023-03-14T06:41:06;0.60;;;0.60;;
16512;SDS011;8369;48.030;11.598;2023-03-14T06:43:35;0.60;;;0.60;;
16512;SDS011;8369;48.030;11.598;2023-03-14T06:46:04;0.50;;;0.50;;
16512;SDS011;8369;48.030;11.598;2023-03-14T06:48:31;0.90;;;0.90;;
16512;SDS011;8369;48.030;11.598;2023-03-14T06:50:57;0.80;;;0.80;;
16512;SDS011;8369;48.030;11.598;2023-03-14T06:53:24;0.60;;;0.60;;
16512;SDS011;8369;48.030;11.598;2023-03-14T06:55:51;0.50;;;0.50;;
16512;SDS011;8369;48.030;11.598;2023-03-14T06:58:42;0.50;;;0.50;;
16512;SDS011;8369;48.030;11.598;2023-03-14T07:01:17;1.10;;;0.90;;
16512;SDS011;8369;48.030;11.598;2023-03-14T07:03:51;0.90;;;0.90;;
16512;SDS011;8369;48.030;11.598;2023-03-14T07:06:18;0.80;;;0.80;;
16512;SDS011;8369;48.030;11.598;2023-03-14T07:08:45;1.10;;;0.90;;
16512;SDS011;8369;48.030;11.598;2023-03-14T07:11:12;1.97;;;1.10;;
16512;SDS011;8369;48.030;11.598;2023-03-14T07:13:39;1.63;;;1.53;;
16512;SDS011;8369;48.030;11.598;2023-03-14T07:16:07;1.70;;;1.30;;
16512;SDS011;8369;48.030;11.598;2023-03-14T07:18:34;1.20;;;1.07;;
16512;SDS011;8369;48.030;11.598;2023-03-14T07:21:00;1.23;;;1.00;;
16512;SDS011;8369;48.030;11.598;2023-03-14T07:23:29;1.90;;;1.00;;
16512;SDS011;8369;48.030;11.598;2023-03-14T07:25:56;1.00;;;0.90;;
16512;SDS011;8369;48.030;11.598;2023-03-14T07:28:22;1.20;;;1.10;;
16512;SDS011;8369;48.030;11.598;2023-03-14T07:30:49;2.33;;;1.00;;
16512;SDS011;8369;48.030;11.598;2023-03-14T07:33:16;0.70;;;0.70;;
16512;SDS011;8369;48.030;11.598;2023-03-14T07:35:42;3.20;;;0.70;;
16512;SDS011;8369;48.030;11.598;2023-03-14T07:38:10;0.63;;;0.63;;
16512;SDS011;8369;48.030;11.598;2023-03-14T07:40:37;1.30;;;0.90;;
16512;SDS011;8369;48.030;11.598;2023-03-14T07:43:03;0.43;;;0.43;;
16512;SDS011;8369;48.030;11.598;2023-03-14T07:45:29;0.40;;;0.40;;
16512;SDS011;8369;48.030;11.598;2023-03-14T07:47:57;0.87;;;0.87;;
16512;SDS011;8369;48.030;11.598;2023-03-14T07:50:23;1.10;;;1.03;;
16512;SDS011;8369;48.030;11.598;2023-03-14T07:52:51;0.87;;;0.80;;
16512;SDS011;8369;48.030;11.598;2023-03-14T07:55:18;1.13;;;0.80;;
16512;SDS011;8369;48.030;11.598;2023-03-14T07:57:47;1.10;;;1.00;;
16512;SDS011;8369;48.030;11.598;2023-03-14T08:00:14;2.80;;;0.80;;
16512;SDS011;8369;48.030;11.598;2023-03-14T08:02:40;1.20;;;1.10;;
16512;SDS011;8369;48.030;11.598;2023-03-14T08:05:09;0.70;;;0.70;;
16512;SDS011;8369;48.030;11.598;2023-03-14T08:07:39;1.50;;;0.97;;
16512;SDS011;8369;48.030;11.598;2023-03-14T08:10:05;1.80;;;1.20;;
16512;SDS011;8369;48.030;11.598;2023-03-14T08:12:31;1.40;;;1.30;;
16512;SDS011;8369;48.030;11.598;2023-03-14T08:14:57;1.50;;;1.30;;
16512;SDS011;8369;48.030;11.598;2023-03-14T08:17:24;2.20;;;1.80;;
16512;SDS011;8369;48.030;11.598;2023-03-14T08:19:53;1.60;;;1.27;;
16512;SDS011;8369;48.030;11.598;2023-03-14T08:22:20;1.27;;;1.17;;
16512;SDS011;8369;48.030;11.598;2023-03-14T08:24:45;1.23;;;1.10;;
16512;SDS011;8369;48.030;11.598;2023-03-14T08:27:11;2.03;;;1.40;;
16512;SDS011;8369;48.030;11.598;2023-03-14T08:29:39;1.70;;;1.30;;
16512;SDS011;8369;48.030;11.598;2023-03-14T08:32:06;0.90;;;0.90;;
16512;SDS011;8369;48.030;11.598;2023-03-14T08:34:33;1.30;;;1.20;;
16512;SDS011;8369;48.030;11.598;2023-03-14T08:36:59;1.17;;;1.07;;
16512;SDS011;8369;48.030;11.598;2023-03-14T08:39:30;1.70;;;1.40;;
16512;SDS011;8369;48.030;11.598;2023-03-14T08:41:57;1.30;;;1.20;;
16512;SDS011;8369;48.030;11.598;2023-03-14T08:44:24;1.63;;;1.30;;
16512;SDS011;8369;48.030;11.598;2023-03-14T08:46:50;1.40;;;1.30;;
16512;SDS011;8369;48.030;11.598;2023-03-14T08:49:17;1.20;;;1.10;;
16512;SDS011;8369;48.030;11.598;2023-03-14T08:51:48;1.07;;;0.97;;
16512;SDS011;8369;48.030;11.598;2023-03-14T08:54:15;0.80;;;0.80;;
16512;SDS011;8369;48.030;11.598;2023-03-14T08:56:43;0.70;;;0.70;;
16512;SDS011;8369;48.030;11.598;2023-03-14T08:59:10;1.00;;;0.90;;
16512;SDS011;8369;48.030;11.598;2023-03-14T09:01:37;1.23;;;1.00;;
16512;SDS011;8369;48.030;11.598;2023-03-14T09:04:05;1.53;;;1.20;;
16512;SDS011;8369;48.030;11.598;2023-03-14T09:06:33;0.90;;;0.90;;
16512;SDS011;8369;48.030;11.598;2023-03-14T09:09:01;1.63;;;1.00;;
16512;SDS011;8369;48.030;11.598;2023-03-14T09:11:28;0.87;;;0.77;;
16512;SDS011;8369;48.030;11.598;2023-03-14T09:13:55;1.07;;;0.97;;
16512;SDS011;8369;48.030;11.598;2023-03-14T09:16:24;1.13;;;0.90;;
16512;SDS011;8369;48.030;11.598;2023-03-14T09:18:52;0.80;;;0.80;;
16512;SDS011;8369;48.030;11.598;2023-03-14T09:21:20;0.90;;;0.90;;
16512;SDS011;8369;48.030;11.598;2023-03-14T09:23:47;0.80;;;0.80;;
16512;SDS011;8369;48.030;11.598;2023-03-14T09:26:14;0.80;;;0.80;;
16512;SDS011;8369;48.030;11.598;2023-03-14T09:28:40;0.93;;;0.93;;
16512;SDS011;8369;48.030;11.598;2023-03-14T09:31:08;1.20;;;1.10;;
16512;SDS011;8369;48.030;11.598;2023-03-14T09:33:36;0.70;;;0.70;;
16512;SDS011;8369;48.030;11.598;2023-03-14T09:36:03;1.33;;;0.90;;
16512;SDS011;8369;48.030;11.598;2023-03-14T09:38:30;1.37;;;0.87;;
16512;SDS011;8369;48.030;11.598;2023-03-14T09:40:59;0.90;;;0.90;;
16512;SDS011;8369;48.030;11.598;2023-03-14T09:43:29;2.07;;;1.20;;
16512;SDS011;8369;48.030;11.598;2023-03-14T09:45:58;3.80;;;1.20;;
16512;SDS011;8369;48.030;11.598;2023-03-14T09:48:30;1.50;;;1.10;;
16512;SDS011;8369;48.030;11.598;2023-03-14T09:50:59;2.17;;;1.30;;
16512;SDS011;8369;48.030;11.598;2023-03-14T09:53:43;1.70;;;1.00;;
16512;SDS011;8369;48.030;11.598;2023-03-14T09:56:13;1.10;;;1.00;;
16512;SDS011;8369;48.030;11.598;2023-03-14T09:58:53;1.20;;;0.90;;
16512;SDS011;8369;48.030;11.598;2023-03-14T10:01:27;0.80;;;0.80;;
16512;SDS011;8369;48.030;11.598;2023-03-14T10:03:57;0.90;;;0.90;;
16512;SDS011;8369;48.030;11.598;2023-03-14T10:06:29;1.40;;;1.10;;
16512;SDS011;8369;48.030;11.598;2023-03-14T10:11:57;0.70;;;0.70;;
16512;SDS011;8369;48.030;11.598;2023-03-14T10:14:32;1.07;;;0.93;;
16512;SDS011;8369;48.030;11.598;2023-03-14T10:17:11;1.33;;;1.23;;
16512;SDS011;8369;48.030;11.598;2023-03-14T10:19:59;2.40;;;1.60;;
16512;SDS011;8369;48.030;11.598;2023-03-14T10:22:29;1.30;;;0.90;;
16512;SDS011;8369;48.030;11.598;2023-03-14T10:25:01;1.90;;;1.00;;
16512;SDS011;8369;48.030;11.598;2023-03-14T10:27:32;1.13;;;0.90;;
16512;SDS011;8369;48.030;11.598;2023-03-14T10:30:01;1.17;;;1.07;;
16512;SDS011;8369;48.030;11.598;2023-03-14T10:32:34;0.90;;;0.87;;
16512;SDS011;8369;48.030;11.598;2023-03-14T10:40:33;0.80;;;0.80;;
16512;SDS011;8369;48.030;11.598;2023-03-14T10:43:05;1.13;;;0.97;;
16512;SDS011;8369;48.030;11.598;2023-03-14T10:45:42;1.87;;;1.37;;
16512;SDS011;8369;48.030;11.598;2023-03-14T10:50:56;1.60;;;1.17;;
16512;SDS011;8369;48.030;11.598;2023-03-14T10:53:44;1.00;;;1.00;;
16512;SDS011;8369;48.030;11.598;2023-03-14T10:56:39;0.70;;;0.70;;
16512;SDS011;8369;48.030;11.598;2023-03-14T10:59:07;0.87;;;0.87;;
16512;SDS011;8369;48.030;11.598;2023-03-14T11:01:41;1.13;;;0.90;;
16512;SDS011;8369;48.030;11.598;2023-03-14T11:07:11;1.90;;;0.80;;
16512;SDS011;8369;48.030;11.598;2023-03-14T11:10:08;0.80;;;0.80;;
16512;SDS011;8369;48.030;11.598;2023-03-14T11:16:02;1.03;;;1.00;;
16512;SDS011;8369;48.030;11.598;2023-03-14T11:22:20;0.80;;;0.80;;
16512;SDS011;8369;48.030;11.598;2023-03-14T11:24:58;0.67;;;0.67;;
16512;SDS011;8369;48.030;11.598;2023-03-14T11:27:40;0.63;;;0.63;;
16512;SDS011;8369;48.030;11.598;2023-03-14T11:30:18;1.73;;;0.67;;
16512;SDS011;8369;48.030;11.598;2023-03-14T11:33:08;0.60;;;0.60;;
16512;SDS011;8369;48.030;11.598;2023-03-14T11:36:08;0.73;;;0.70;;
16512;SDS011;8369;48.030;11.598;2023-03-14T11:41:14;0.70;;;0.70;;
16512;SDS011;8369;48.030;11.598;2023-03-14T11:43:47;0.70;;;0.70;;
16512;SDS011;8369;48.030;11.598;2023-03-14T11:46:34;1.10;;;1.00;;
16512;SDS011;8369;48.030;11.598;2023-03-14T11:49:11;1.27;;;1.17;;
16512;SDS011;8369;48.030;11.598;2023-03-14T11:51:41;0.40;;;0.40;;
16512;SDS011;8369;48.030;11.598;2023-03-14T11:56:59;1.70;;;1.23;;
16512;SDS011;8369;48.030;11.598;2023-03-14T12:08:25;0.80;;;0.80;;
16512;SDS011;8369;48.030;11.598;2023-03-14T12:11:15;0.30;;;0.30;;
16512;SDS011;8369;48.030;11.598;2023-03-14T12:13:53;0.50;;;0.50;;
16512;SDS011;8369;48.030;11.598;2023-03-14T12:16:25;0.60;;;0.60;;
16512;SDS011;8369;48.030;11.598;2023-03-14T12:24:47;1.37;;;0.60;;
16512;SDS011;8369;48.030;11.598;2023-03-14T12:30:25;0.70;;;0.70;;
16512;SDS011;8369;48.030;11.598;2023-03-14T12:35:47;1.23;;;1.13;;
16512;SDS011;8369;48.030;11.598;2023-03-14T12:41:03;1.43;;;0.90;;
16512;SDS011;8369;48.030;11.598;2023-03-14T12:43:37;3.70;;;1.70;;
16512;SDS011;8369;48.030;11.598;2023-03-14T12:48:39;1.40;;;1.00;;
16512;SDS011;8369;48.030;11.598;2023-03-14T12:51:19;0.70;;;0.70;;
16512;SDS011;8369;48.030;11.598;2023-03-14T13:04:36;3.43;;;3.13;;
16512;SDS011;8369;48.030;11.598;2023-03-14T13:07:12;0.70;;;0.70;;
16512;SDS011;8369;48.030;11.598;2023-03-14T13:09:49;0.60;;;0.60;;
16512;SDS011;8369;48.030;11.598;2023-03-14T13:12:23;0.67;;;0.67;;
16512;SDS011;8369;48.030;11.598;2023-03-14T13:14:57;0.50;;;0.50;;
16512;SDS011;8369;48.030;11.598;2023-03-14T13:17:27;0.53;;;0.53;;
16512;SDS011;8369;48.030;11.598;2023-03-14T13:19:57;0.60;;;0.60;;
16512;SDS011;8369;48.030;11.598;2023-03-14T13:22:50;0.60;;;0.60;;
16512;SDS011;8369;48.030;11.598;2023-03-14T13:25:17;0.50;;;0.50;;
16512;SDS011;8369;48.030;11.598;2023-03-14T13:27:46;0.70;;;0.70;;
16512;SDS011;8369;48.030;11.598;2023-03-14T13:30:14;0.60;;;0.60;;
16512;SDS011;8369;48.030;11.598;2023-03-14T13:32:53;2.13;;;1.33;;
16512;SDS011;8369;48.030;11.598;2023-03-14T13:35:22;0.70;;;0.70;;
16512;SDS011;8369;48.030;11.598;2023-03-14T13:37:56;0.60;;;0.60;;
16512;SDS011;8369;48.030;11.598;2023-03-14T13:40:30;0.60;;;0.60;;
16512;SDS011;8369;48.030;11.598;2023-03-14T13:42:59;1.30;;;1.20;;
16512;SDS011;8369;48.030;11.598;2023-03-14T13:45:40;0.60;;;0.60;;
16512;SDS011;8369;48.030;11.598;2023-03-14T13:48:09;0.60;;;0.60;;
16512;SDS011;8369;48.030;11.598;2023-03-14T13:50:43;0.70;;;0.70;;
16512;SDS011;8369;48.030;11.598;2023-03-14T13:53:43;0.47;;;0.47;;
16512;SDS011;8369;48.030;11.598;2023-03-14T13:56:15;0.43;;;0.43;;
16512;SDS011;8369;48.030;11.598;2023-03-14T13:58:42;0.60;;;0.60;;
16512;SDS011;8369;48.030;11.598;2023-03-14T14:03:50;0.50;;;0.50;;
16512;SDS011;8369;48.030;11.598;2023-03-14T14:08:59;0.50;;;0.50;;
16512;SDS011;8369;48.030;11.598;2023-03-14T14:11:34;0.40;;;0.40;;
16512;SDS011;8369;48.030;11.598;2023-03-14T14:14:04;0.50;;;0.50;;
16512;SDS011;8369;48.030;11.598;2023-03-14T14:16:34;0.50;;;0.50;;
16512;SDS011;8369;48.030;11.598;2023-03-14T14:19:01;0.47;;;0.47;;
16512;SDS011;8369;48.030;11.598;2023-03-14T14:21:28;0.50;;;0.50;;
16512;SDS011;8369;48.030;11.598;2023-03-14T14:23:54;0.50;;;0.50;;
16512;SDS011;8369;48.030;11.598;2023-03-14T14:26:20;0.30;;;0.30;;
16512;SDS011;8369;48.030;11.598;2023-03-14T14:28:46;1.77;;;1.20;;
16512;SDS011;8369;48.030;11.598;2023-03-14T14:33:41;0.70;;;0.70;;
16512;SDS011;8369;48.030;11.598;2023-03-14T14:36:22;0.60;;;0.60;;
16512;SDS011;8369;48.030;11.598;2023-03-14T14:38:53;0.80;;;0.80;;
16512;SDS011;8369;48.030;11.598;2023-03-14T14:41:26;0.63;;;0.63;;
16512;SDS011;8369;48.030;11.598;2023-03-14T14:43:54;0.60;;;0.60;;
16512;SDS011;8369;48.030;11.598;2023-03-14T14:46:21;0.90;;;0.50;;
16512;SDS011;8369;48.030;11.598;2023-03-14T14:48:47;0.63;;;0.63;;
16512;SDS011;8369;48.030;11.598;2023-03-14T14:51:26;1.57;;;0.50;;
16512;SDS011;8369;48.030;11.598;2023-03-14T14:54:04;0.60;;;0.60;;
16512;SDS011;8369;48.030;11.598;2023-03-14T14:56:37;0.40;;;0.40;;
16512;SDS011;8369;48.030;11.598;2023-03-14T14:59:03;0.70;;;0.70;;
16512;SDS011;8369;48.030;11.598;2023-03-14T15:01:33;1.40;;;0.50;;
16512;SDS011;8369;48.030;11.598;2023-03-14T15:04:01;0.60;;;0.60;;
16512;SDS011;8369;48.030;11.598;2023-03-14T15:06:30;0.63;;;0.63;;
16512;SDS011;8369;48.030;11.598;2023-03-14T15:08:56;0.50;;;0.50;;
16512;SDS011;8369;48.030;11.598;2023-03-14T15:11:24;0.70;;;0.70;;
16512;SDS011;8369;48.030;11.598;2023-03-14T15:13:51;0.53;;;0.53;;
16512;SDS011;8369;48.030;11.598;2023-03-14T15:16:27;1.37;;;0.80;;
16512;SDS011;8369;48.030;11.598;2023-03-14T15:18:56;0.40;;;0.40;;
16512;SDS011;8369;48.030;11.598;2023-03-14T15:21:24;0.90;;;0.80;;
16512;SDS011;8369;48.030;11.598;2023-03-14T15:23:51;0.70;;;0.67;;
16512;SDS011;8369;48.030;11.598;2023-03-14T15:26:18;1.20;;;1.10;;
16512;SDS011;8369;48.030;11.598;2023-03-14T15:28:46;0.70;;;0.70;;
16512;SDS011;8369;48.030;11.598;2023-03-14T15:31:13;0.57;;;0.57;;
16512;SDS011;8369;48.030;11.598;2023-03-14T15:33:40;0.80;;;0.80;;
16512;SDS011;8369;48.030;11.598;2023-03-14T15:36:14;0.80;;;0.80;;
16512;SDS011;8369;48.030;11.598;2023-03-14T15:38:50;0.70;;;0.70;;
16512;SDS011;8369;48.030;11.598;2023-03-14T15:41:19;0.60;;;0.60;;
16512;SDS011;8369;48.030;11.598;2023-03-14T15:43:49;0.63;;;0.50;;
16512;SDS011;8369;48.030;11.598;2023-03-14T15:46:15;0.50;;;0.50;;
16512;SDS011;8369;48.030;11.598;2023-03-14T15:48:42;1.07;;;0.50;;
16512;SDS011;8369;48.030;11.598;2023-03-14T15:51:09;0.40;;;0.40;;
16512;SDS011;8369;48.030;11.598;2023-03-14T15:53:36;0.77;;;0.77;;
16512;SDS011;8369;48.030;11.598;2023-03-14T15:56:03;0.50;;;0.50;;
16512;SDS011;8369;48.030;11.598;2023-03-14T15:58:35;0.47;;;0.47;;
16512;SDS011;8369;48.030;11.598;2023-03-14T16:01:01;0.40;;;0.40;;
16512;SDS011;8369;48.030;11.598;2023-03-14T16:03:30;0.60;;;0.60;;
16512;SDS011;8369;48.030;11.598;2023-03-14T16:05:56;1.20;;;0.50;;
16512;SDS011;8369;48.030;11.598;2023-03-14T16:08:23;1.43;;;0.70;;
16512;SDS011;8369;48.030;11.598;2023-03-14T16:10:51;0.70;;;0.70;;
16512;SDS011;8369;48.030;11.598;2023-03-14T16:13:17;0.80;;;0.80;;
16512;SDS011;8369;48.030;11.598;2023-03-14T16:15:52;1.10;;;0.80;;
16512;SDS011;8369;48.030;11.598;2023-03-14T16:18:18;0.70;;;0.70;;
16512;SDS011;8369;48.030;11.598;2023-03-14T16:20:50;0.70;;;0.70;;
16512;SDS011;8369;48.030;11.598;2023-03-14T16:23:17;0.70;;;0.70;;
16512;SDS011;8369;48.030;11.598;2023-03-14T16:25:43;1.10;;;1.00;;
16512;SDS011;8369;48.030;11.598;2023-03-14T16:28:09;0.80;;;0.80;;
16512;SDS011;8369;48.030;11.598;2023-03-14T16:30:35;0.63;;;0.60;;
16512;SDS011;8369;48.030;11.598;2023-03-14T16:33:01;0.77;;;0.77;;
16512;SDS011;8369;48.030;11.598;2023-03-14T16:35:27;1.47;;;0.80;;